Estación de San Nicolás

Ultimos registro cada 15 minutos 90
Estación Fecha / Hora Temperatura Humedad Lluvia Velocidad Dirección Radiación Presion
90 San Nicolás 07-05-2026 22:15 9,2 89 0 0 241 0 1024,4
89 San Nicolás 07-05-2026 22:00 9,2 89 0 0 241 0 1024,7
88 San Nicolás 07-05-2026 21:45 9,2 88 0 0 241 0 1024,6
87 San Nicolás 07-05-2026 21:30 9,3 88 0 0 241 0 1024,9
86 San Nicolás 07-05-2026 21:15 9,3 88 0 0 241 0 1025
85 San Nicolás 07-05-2026 21:00 9,4 88 0 0 241 0 1025,1
84 San Nicolás 07-05-2026 20:45 9,6 89 0 0 241 0 1025
83 San Nicolás 07-05-2026 20:30 9,8 88 0 0 241 0 1025,3
82 San Nicolás 07-05-2026 20:15 9,9 86 0 0 241 0 1025,5
81 San Nicolás 07-05-2026 20:00 10 86 0 0 241 0 1025,5
80 San Nicolás 07-05-2026 19:45 10,1 86 0 0 241 0 1025,5
79 San Nicolás 07-05-2026 19:30 10,2 83 0 0 241 0 1025,6
78 San Nicolás 07-05-2026 19:15 10,2 82 0 0 241 0 1025,2
77 San Nicolás 07-05-2026 19:00 10,4 81 0 0 241 0 1025,5
76 San Nicolás 07-05-2026 18:45 10,6 80 0 0 241 0 1025,6
75 San Nicolás 07-05-2026 18:30 10,7 79 0 0 241 0 1025,4
74 San Nicolás 07-05-2026 18:15 10,9 79 0 0 241 0 1025,4
73 San Nicolás 07-05-2026 18:00 11,1 77 0 0 241 0 1025
72 San Nicolás 07-05-2026 17:45 11,2 75 0 0 241 0 1024,9
71 San Nicolás 07-05-2026 17:30 11,3 74 0 0 241 7 1025,2
70 San Nicolás 07-05-2026 17:15 11,4 74 0 0 241 19 1025,2
69 San Nicolás 07-05-2026 17:00 11,6 73 0 0,9 241 30 1025,3
68 San Nicolás 07-05-2026 16:45 11,7 74 0 0 241 19 1025,6
67 San Nicolás 07-05-2026 16:30 11,9 73 0 0,9 238 25 1025,6
66 San Nicolás 07-05-2026 16:15 12 71 0 0,9 230 35 1025,3
65 San Nicolás 07-05-2026 16:00 12,2 70 0 0,4 234 53 1025,7
64 San Nicolás 07-05-2026 15:45 12,3 69 0 1,8 230 63 1025,7
63 San Nicolás 07-05-2026 15:30 12,6 68 0 0,9 247 74 1025,4
62 San Nicolás 07-05-2026 15:15 12,7 67 0 1,8 246 97 1025,5
61 San Nicolás 07-05-2026 15:00 12,8 67 0 1,3 236 127 1025,5
60 San Nicolás 07-05-2026 14:45 12,8 66 0 1,8 267 149 1025,6
59 San Nicolás 07-05-2026 14:30 12,9 68 0 1,3 231 171 1025,8
58 San Nicolás 07-05-2026 14:15 13,1 70 0 1,8 226 223 1025,5
57 San Nicolás 07-05-2026 14:00 13,2 70 0 3,6 295 239 1025,4
56 San Nicolás 07-05-2026 13:45 13,3 68 0 1,3 232 257 1025,6
55 San Nicolás 07-05-2026 13:30 13,6 69 0 2,7 233 287 1025,8
54 San Nicolás 07-05-2026 13:15 13,4 67 0 1,8 242 338 1025,8
53 San Nicolás 07-05-2026 13:00 13,3 66 0 3,1 202 403 1025,7
52 San Nicolás 07-05-2026 12:45 13,5 69 0 2,2 270 492 1025,9
51 San Nicolás 07-05-2026 12:30 13,5 67 0 2,2 245 617 1025,8
50 San Nicolás 07-05-2026 12:15 13,4 69 0 4 245 589 1025,7
49 San Nicolás 07-05-2026 12:00 13,2 68 0 2,7 207 582 1026
48 San Nicolás 07-05-2026 11:45 12,9 70 0 3,6 272 568 1026,4
47 San Nicolás 07-05-2026 11:30 12,6 70 0 1,8 213 555 1026,3
46 San Nicolás 07-05-2026 11:15 12,2 76 0 2,7 202 536 1026,3
45 San Nicolás 07-05-2026 11:00 11,8 82 0 1,8 240 515 1026,8
44 San Nicolás 07-05-2026 10:45 10,9 86 0 2,2 207 534 1026,7
43 San Nicolás 07-05-2026 10:30 9,4 91 0 1,8 228 510 1027
42 San Nicolás 07-05-2026 10:15 8,8 92 0 0 257 199 1027,1
41 San Nicolás 07-05-2026 10:00 8,1 93 0 0,9 257 229 1026,8
40 San Nicolás 07-05-2026 09:45 7,5 94 0 1,3 259 171 1026,9
39 San Nicolás 07-05-2026 09:30 7,1 95 0 0,9 259 125 1026,5
38 San Nicolás 07-05-2026 09:15 6,8 96 0 0 259 125 1026,2
37 San Nicolás 07-05-2026 09:00 6,5 96 0 0 259 81 1025,9
36 San Nicolás 07-05-2026 08:45 6,2 96 0 0 259 54 1026,3
35 San Nicolás 07-05-2026 08:30 5,8 96 0 0 259 44 1025,9
34 San Nicolás 07-05-2026 08:15 5,4 96 0 0 259 35 1025,8
33 San Nicolás 07-05-2026 08:00 4,4 96 0 0 259 26 1025,5
32 San Nicolás 07-05-2026 07:45 3,2 94 0 0 259 23 1025,1
31 San Nicolás 07-05-2026 07:30 3,2 94 0 0 259 0 1024,8
30 San Nicolás 07-05-2026 07:15 3,2 94 0 0 259 0 1024,7
29 San Nicolás 07-05-2026 07:00 3,2 93 0 0 259 0 1024,6
28 San Nicolás 07-05-2026 06:45 3,2 93 0 0 259 0 1024,5
27 San Nicolás 07-05-2026 06:30 3,7 92 0 0 259 0 1024,3
26 San Nicolás 07-05-2026 06:15 4,2 93 0 0 259 0 1024,6
25 San Nicolás 07-05-2026 06:00 4,5 93 0 0 259 0 1024,3
24 San Nicolás 07-05-2026 05:45 5,2 93 0 0 259 0 1024,1
23 San Nicolás 07-05-2026 05:30 5,5 93 0 0 259 0 1024,1
22 San Nicolás 07-05-2026 05:15 5,5 94 0 0 259 0 1023,9
21 San Nicolás 07-05-2026 05:00 5,4 94 0 0 259 0 1023,6
20 San Nicolás 07-05-2026 04:45 5,3 94 0 0 259 0 1023,5
19 San Nicolás 07-05-2026 04:30 4,7 93 0 0 259 0 1023,5
18 San Nicolás 07-05-2026 04:15 4,4 91 0 0 259 0 1023,3
17 San Nicolás 07-05-2026 04:00 4,7 91 0 0 259 0 1023,3
16 San Nicolás 07-05-2026 03:45 4,9 91 0 0 259 0 1023,1
15 San Nicolás 07-05-2026 03:30 5,7 92 0 0 259 0 1023,1
14 San Nicolás 07-05-2026 03:15 5,8 90 0 0 259 0 1023,2
13 San Nicolás 07-05-2026 03:00 6,6 91 0 0 259 0 1023,3
12 San Nicolás 07-05-2026 02:45 6,9 91 0 0 259 0 1023,3
11 San Nicolás 07-05-2026 02:30 7,2 91 0 0 259 0 1023,1
10 San Nicolás 07-05-2026 02:15 7,3 91 0 0,9 259 0 1023
9 San Nicolás 07-05-2026 02:00 7,5 91 0 0 259 0 1022,9
8 San Nicolás 07-05-2026 01:45 7,7 90 0 0 259 0 1023
7 San Nicolás 07-05-2026 01:30 8,1 90 0 0 259 0 1022,7
6 San Nicolás 07-05-2026 01:15 8,4 89 0 0 259 0 1022,5
5 San Nicolás 07-05-2026 01:00 8,8 88 0 0 259 0 1022,6
4 San Nicolás 07-05-2026 00:45 9,3 88 0 0 259 0 1022,5
3 San Nicolás 07-05-2026 00:30 9,8 88 0 0 259 0 1022,5
2 San Nicolás 07-05-2026 00:15 10,1 88 0 0 259 0 1022,2
1 San Nicolás 07-05-2026 00:00 10,4 88 0 0,9 257 0 1022,1